Charlestown, MD (21914)

10:42 AM EDT on May 28, 2015 (GMT -0400)
Hances Point Y.C. | | Change Station
CLOSE
Current Station
Personal Weather Station
Location: North East, MD
Elevation: 12 ft
Nearby Weather Stations

Elev 12 ft 39.56 °N, 75.96 °W | Updated 14 minutes ago

Overcast
Overcast
79.5 °F
Feels Like 83 °F
N
2.7
Wind Variable Wind from SSW

Today
High -- | Low -- °F
--% Chance of Precip.
Yesterday
High -- | Low -- °F
Precip. -- in
5:40 AM 8:22 PM
Waxing Gibbous, 76% visible
Pressure 30.16 in
Visibility 7.0 miles
Clouds Mostly Cloudy 6000 ft
Mostly Cloudy 20000 ft
Heat Index 83 °F
Dew Point 74 °F
Humidity 82%
Rainfall 0.00 in
Snow Depth Not available.
UV 4 out of 12
Pollen 7.50 out of 12
Air Quality Not available.
Flu Activity Sporadic
METAR KAPG 281356Z 21006KT 7SM BKN060 BKN200 26/22 A3016

More Conditions Fewer Conditions

Pressure 30.16 in
Visibility 7.0 miles
Clouds Mostly Cloudy 6000 ft
Mostly Cloudy 20000 ft
Heat Index 83 °F
Dew Point 74 °F
Humidity 82%
Rainfall 0.00 in
Snow Depth Not available.
UV 4 out of 12
Pollen 7.50 out of 12
Air Quality Not available.
Flu Activity Sporadic
METAR KAPG 281356Z 21006KT 7SM BKN060 BKN200 26/22 A3016

More Conditions Fewer Conditions

10-Day Weather Forecast

Almanac

Astronomy

May. 28, 2015 Rise Set
Actual Time
Civil Twilight
Nautical Twilight
Astronomical Twilight
Moon
Length of Visible Light
Length of Day
Tomorrow will be .
, % of the Moon is Illuminated

Today's Extremes

State Highs State Lows

Community

WunderPhotos

Upload Photos

1,824,988 photos uploaded!

WunderBlogs® & News

Nearby

Air Quality

  Air Quality AQ Index Pollutant
Not available.

Snow Depth

Station Depth Elevation

Earthquake Activity

City Distance Mag. Time & Date
Minimum magnitude displayed is 2.5.

Coastal Water Temperatures

Place Temperature

Stations

Nearby Weather Stations

Station Location Temp. Windchill Dew Point Humidity Wind Precip. Elev Updated Type